METAR Data
IDs: Format: Raw Decoded Include TAF

Data at: 0030 UTC 01 Mar 2021

VIDP 010000Z 27003KT 2200 BR NSC 15/11 Q1012 NOSIG